createdAt,value
2023-01-13T00:01:26.322Z,1.13
2023-01-13T00:03:52.974Z,1.52
2023-01-13T00:06:21.905Z,2.05
2023-01-13T00:08:50.132Z,0.80
2023-01-13T00:11:16.703Z,3.08
2023-01-13T00:13:43.264Z,1.65
2023-01-13T00:16:18.338Z,4.15
2023-01-13T00:18:45.111Z,2.78
2023-01-13T00:21:16.606Z,0.55
2023-01-13T00:23:43.811Z,1.83
2023-01-13T00:26:12.723Z,1.30
2023-01-13T00:28:39.660Z,1.42
2023-01-13T00:31:14.563Z,1.80
2023-01-13T00:33:41.217Z,2.00
2023-01-13T00:36:09.280Z,1.92
2023-01-13T00:38:36.697Z,1.50
2023-01-13T00:41:08.263Z,1.77
2023-01-13T00:43:36.167Z,1.23
2023-01-13T00:46:06.809Z,3.75
2023-01-13T00:48:33.794Z,4.32
2023-01-13T00:51:05.897Z,1.30
2023-01-13T00:53:38.856Z,1.77
2023-01-13T00:56:08.084Z,2.28
2023-01-13T00:58:35.779Z,2.90
2023-01-13T01:01:04.851Z,2.40
2023-01-13T01:03:31.753Z,2.95
2023-01-13T01:06:07.311Z,2.63
2023-01-13T01:08:34.854Z,4.78
2023-01-13T01:11:15.605Z,2.35
2023-01-13T01:13:44.128Z,1.85
2023-01-13T01:16:13.363Z,6.25
2023-01-13T01:18:42.385Z,4.22
2023-01-13T01:21:09.636Z,5.05
2023-01-13T01:23:37.058Z,3.63
2023-01-13T01:26:09.131Z,5.38
2023-01-13T01:28:35.673Z,5.40
2023-01-13T01:31:10.902Z,3.15
2023-01-13T01:33:37.512Z,5.45
2023-01-13T01:36:05.027Z,4.18
2023-01-13T01:38:31.577Z,3.17
2023-01-13T01:40:58.611Z,5.30
2023-01-13T01:44:06.018Z,4.57
2023-01-13T01:46:42.503Z,6.22
2023-01-13T01:49:17.784Z,8.93
2023-01-13T01:51:47.942Z,8.40
2023-01-13T01:54:20.960Z,9.50
2023-01-13T01:56:47.864Z,6.03
2023-01-13T01:59:14.624Z,10.80
2023-01-13T02:01:41.762Z,4.38
2023-01-13T02:04:15.524Z,7.85
2023-01-13T02:06:43.208Z,6.57
2023-01-13T02:09:10.190Z,10.63
2023-01-13T02:11:55.984Z,7.97
2023-01-13T02:14:25.402Z,9.85
2023-01-13T02:17:29.276Z,5.53
2023-01-13T02:20:17.384Z,5.15
2023-01-13T02:22:58.707Z,9.32
2023-01-13T02:25:41.453Z,6.32
2023-01-13T02:28:32.951Z,8.30
2023-01-13T02:31:24.131Z,9.70
2023-01-13T02:33:55.324Z,11.13
2023-01-13T02:36:36.043Z,8.05
2023-01-13T02:39:20.855Z,9.05
2023-01-13T02:42:27.475Z,9.57
2023-01-13T02:45:17.658Z,16.05
2023-01-13T02:47:46.441Z,12.73
2023-01-13T02:50:17.603Z,14.25
2023-01-13T02:52:51.323Z,10.75
2023-01-13T02:55:21.086Z,12.98
2023-01-13T02:57:48.517Z,16.20
2023-01-13T03:00:16.518Z,10.85
2023-01-13T03:02:42.971Z,13.55
2023-01-13T03:05:13.968Z,12.77
2023-01-13T03:07:43.272Z,12.65
2023-01-13T03:10:19.740Z,12.70
2023-01-13T03:13:01.914Z,10.75
2023-01-13T03:15:36.944Z,12.10
2023-01-13T03:18:25.472Z,10.80
2023-01-13T03:21:04.574Z,10.27
2023-01-13T03:23:37.924Z,17.42
2023-01-13T03:26:23.226Z,17.35
2023-01-13T03:28:54.373Z,14.82
2023-01-13T03:31:25.899Z,13.73
2023-01-13T03:33:56.364Z,9.50
2023-01-13T03:36:25.724Z,11.95
2023-01-13T03:38:54.812Z,10.40
2023-01-13T03:41:34.689Z,14.48
2023-01-13T03:44:23.852Z,12.30
2023-01-13T03:47:11.063Z,10.80
2023-01-13T03:50:08.234Z,10.75
2023-01-13T03:52:37.591Z,6.47
2023-01-13T03:55:09.530Z,7.30
2023-01-13T03:57:41.385Z,9.55
2023-01-13T04:00:10.059Z,12.52
2023-01-13T04:02:43.857Z,7.63
2023-01-13T04:05:10.639Z,11.45
2023-01-13T04:07:42.863Z,12.52
2023-01-13T04:12:59.665Z,8.40
2023-01-13T04:15:29.879Z,8.55
2023-01-13T04:18:15.399Z,17.05
2023-01-13T04:20:43.279Z,10.88
2023-01-13T04:23:09.771Z,15.93
2023-01-13T04:25:36.506Z,7.80
2023-01-13T04:28:02.956Z,9.88
2023-01-13T04:30:29.314Z,7.93
2023-01-13T04:32:55.687Z,8.57
2023-01-13T04:35:22.042Z,5.75
2023-01-13T04:37:48.489Z,9.15
2023-01-13T04:40:15.025Z,9.25
2023-01-13T04:42:43.809Z,16.08
2023-01-13T04:45:10.595Z,11.80
2023-01-13T04:47:37.358Z,9.75
2023-01-13T04:50:04.113Z,8.35
2023-01-13T04:52:30.556Z,7.70
2023-01-13T04:54:57.617Z,11.93
2023-01-13T04:57:23.997Z,12.10
2023-01-13T04:59:50.406Z,12.57
2023-01-13T05:02:19.816Z,7.72
2023-01-13T05:04:47.331Z,10.50
2023-01-13T05:07:14.982Z,11.18
2023-01-13T05:09:41.384Z,9.45
2023-01-13T05:12:27.885Z,10.60
2023-01-13T05:15:12.737Z,7.07
2023-01-13T05:17:39.599Z,8.52
2023-01-13T05:20:06.946Z,11.98
2023-01-13T05:22:51.896Z,14.05
2023-01-13T05:25:27.987Z,12.00
2023-01-13T05:27:58.934Z,13.07
2023-01-13T05:30:31.157Z,9.30
2023-01-13T05:35:24.174Z,15.95
2023-01-13T05:37:50.621Z,14.07
2023-01-13T05:40:37.165Z,17.77
2023-01-13T05:43:19.742Z,15.52
2023-01-13T05:46:09.552Z,18.20
2023-01-13T05:48:38.312Z,14.07
2023-01-13T05:51:06.656Z,13.93
2023-01-13T05:53:33.995Z,16.73
2023-01-13T05:56:00.435Z,13.32
2023-01-13T05:58:27.664Z,8.10
2023-01-13T06:00:59.827Z,8.73
2023-01-13T06:05:58.393Z,8.65
2023-01-13T06:10:51.221Z,9.63
2023-01-13T06:13:17.610Z,14.07
2023-01-13T06:15:44.223Z,8.73
2023-01-13T06:18:10.696Z,8.82
2023-01-13T06:20:37.323Z,8.23
2023-01-13T06:23:03.757Z,16.02
2023-01-13T06:25:30.124Z,14.70
2023-01-13T06:27:58.906Z,13.68
2023-01-13T06:30:27.906Z,8.63
2023-01-13T06:32:55.728Z,7.82
2023-01-13T06:35:26.841Z,16.17
2023-01-13T06:37:54.328Z,13.75
2023-01-13T06:40:21.045Z,15.93
2023-01-13T06:43:06.030Z,12.55
2023-01-13T06:45:32.490Z,15.48
2023-01-13T06:47:59.788Z,11.65
2023-01-13T06:50:27.095Z,12.98
2023-01-13T06:52:53.497Z,8.95
2023-01-13T06:55:20.111Z,10.07
2023-01-13T06:57:53.849Z,15.80
2023-01-13T07:00:21.504Z,12.35
2023-01-13T07:02:48.668Z,9.23
2023-01-13T07:05:16.254Z,14.55
2023-01-13T07:07:42.936Z,12.70
2023-01-13T07:10:12.983Z,16.25
2023-01-13T07:12:58.885Z,10.52
2023-01-13T07:15:26.606Z,11.40
2023-01-13T07:17:53.266Z,14.60
2023-01-13T07:20:19.774Z,13.77
2023-01-13T07:22:46.213Z,9.75
2023-01-13T07:25:12.648Z,13.65
2023-01-13T07:27:39.268Z,11.82
2023-01-13T07:30:06.345Z,13.55
2023-01-13T07:32:33.507Z,12.20
2023-01-13T07:35:05.161Z,12.35
2023-01-13T07:37:36.380Z,10.30
2023-01-13T07:40:04.720Z,16.48
2023-01-13T07:42:49.578Z,8.85
2023-01-13T07:45:15.984Z,12.27
2023-01-13T07:47:42.381Z,15.07
2023-01-13T07:50:09.615Z,9.93
2023-01-13T07:52:35.976Z,9.40
2023-01-13T07:55:02.461Z,11.00
2023-01-13T07:57:29.013Z,10.68
2023-01-13T07:59:55.559Z,6.70
2023-01-13T08:02:22.223Z,12.70
2023-01-13T08:04:48.768Z,14.73
2023-01-13T08:07:15.182Z,10.40
2023-01-13T08:09:41.617Z,12.27
2023-01-13T08:12:26.393Z,12.68
2023-01-13T08:14:53.976Z,11.30
2023-01-13T08:17:20.715Z,12.00
2023-01-13T08:19:47.402Z,9.73
2023-01-13T08:22:13.907Z,11.95
2023-01-13T08:24:40.329Z,10.68
2023-01-13T08:27:06.751Z,11.18
2023-01-13T08:29:33.162Z,9.32
2023-01-13T08:31:59.539Z,14.45
2023-01-13T08:34:25.913Z,14.63
2023-01-13T08:36:52.391Z,17.45
2023-01-13T08:39:18.838Z,9.50
2023-01-13T08:41:58.228Z,12.30
2023-01-13T08:44:26.749Z,9.77
2023-01-13T08:46:53.749Z,14.45
2023-01-13T08:49:20.603Z,11.68
2023-01-13T08:51:46.995Z,9.25
2023-01-13T08:54:13.887Z,8.13
2023-01-13T08:56:42.385Z,8.57
2023-01-13T08:59:13.321Z,9.70
2023-01-13T09:01:40.838Z,12.82
2023-01-13T09:04:12.657Z,12.32
2023-01-13T09:06:39.049Z,14.48
2023-01-13T09:09:05.469Z,12.07
2023-01-13T09:11:53.347Z,16.33
2023-01-13T09:14:24.274Z,6.65
2023-01-13T09:16:50.680Z,12.48
2023-01-13T09:19:17.093Z,10.52
2023-01-13T09:21:43.501Z,16.48
2023-01-13T09:24:09.941Z,15.15
2023-01-13T09:26:37.604Z,8.82
2023-01-13T09:29:04.642Z,15.27
2023-01-13T09:31:34.314Z,13.65
2023-01-13T09:34:23.673Z,12.27
2023-01-13T09:36:50.692Z,19.23
2023-01-13T09:39:17.668Z,11.57
2023-01-13T09:42:05.304Z,14.35
2023-01-13T09:44:47.115Z,8.50
2023-01-13T09:47:24.721Z,12.45
2023-01-13T09:49:51.224Z,9.88
2023-01-13T09:52:20.383Z,13.10
2023-01-13T09:54:55.696Z,14.65
2023-01-13T09:57:22.164Z,13.10
2023-01-13T09:59:48.771Z,13.13
2023-01-13T10:02:37.139Z,14.48
2023-01-13T10:05:28.071Z,12.88
2023-01-13T10:07:58.112Z,10.20
2023-01-13T10:10:30.866Z,17.75
2023-01-13T10:13:15.701Z,13.65
2023-01-13T10:16:26.202Z,14.27
2023-01-13T10:19:29.352Z,13.02
2023-01-13T10:22:11.073Z,23.13
2023-01-13T10:24:43.321Z,20.30
2023-01-13T10:29:39.569Z,15.32
2023-01-13T10:32:05.952Z,18.55
2023-01-13T10:34:45.253Z,16.70
2023-01-13T10:37:20.287Z,19.40
2023-01-13T10:39:48.204Z,12.23
2023-01-13T10:42:17.194Z,22.13
2023-01-13T10:44:51.105Z,17.08
2023-01-13T10:47:24.541Z,11.48
2023-01-13T10:50:19.456Z,17.13
2023-01-13T10:53:14.844Z,15.82
2023-01-13T10:55:41.287Z,15.55
2023-01-13T10:58:19.463Z,19.27
2023-01-13T11:00:46.450Z,12.30
2023-01-13T11:03:14.911Z,16.77
2023-01-13T11:05:48.403Z,17.63
2023-01-13T11:08:22.886Z,13.05
2023-01-13T11:10:51.561Z,21.33
2023-01-13T11:13:28.428Z,17.92
2023-01-13T11:16:00.185Z,17.88
2023-01-13T11:18:36.449Z,13.75
2023-01-13T11:21:06.575Z,16.50
2023-01-13T11:23:39.963Z,19.58
2023-01-13T11:26:14.880Z,20.33
2023-01-13T11:28:50.917Z,18.48
2023-01-13T11:31:29.462Z,11.63
2023-01-13T11:34:19.041Z,12.88
2023-01-13T11:36:51.789Z,18.25
2023-01-13T11:39:24.412Z,20.60
2023-01-13T11:42:16.372Z,16.67
2023-01-13T11:45:04.498Z,13.85
2023-01-13T11:47:31.931Z,16.58
2023-01-13T11:49:58.513Z,16.77
2023-01-13T11:52:51.779Z,12.30
2023-01-13T11:55:33.315Z,11.60
2023-01-13T11:58:03.724Z,15.70
2023-01-13T12:00:49.183Z,13.98
2023-01-13T12:03:49.798Z,12.15
2023-01-13T12:06:18.874Z,16.33
2023-01-13T12:09:00.682Z,14.65
2023-01-13T12:11:32.583Z,15.15
2023-01-13T12:13:58.893Z,17.48
2023-01-13T12:16:27.016Z,20.70
2023-01-13T12:19:30.493Z,14.52
2023-01-13T12:22:02.384Z,13.70
2023-01-13T12:24:38.028Z,13.88
2023-01-13T12:27:11.926Z,17.23
2023-01-13T12:29:39.158Z,13.82
2023-01-13T12:32:10.847Z,19.75
2023-01-13T12:34:47.626Z,18.50
2023-01-13T12:37:27.534Z,14.45
2023-01-13T12:40:13.494Z,21.17
2023-01-13T12:43:04.553Z,22.35
2023-01-13T12:45:33.024Z,18.35
2023-01-13T12:47:59.920Z,10.68
2023-01-13T12:50:26.303Z,9.13
2023-01-13T12:52:54.856Z,13.07
2023-01-13T12:55:28.674Z,15.52
2023-01-13T12:57:59.930Z,16.25
2023-01-13T13:00:57.778Z,13.53
2023-01-13T13:03:29.150Z,17.92
2023-01-13T13:06:06.018Z,14.93
2023-01-13T13:08:46.755Z,19.02
2023-01-13T13:11:32.991Z,24.25
2023-01-13T13:14:01.411Z,14.65
2023-01-13T13:16:29.299Z,15.68
2023-01-13T13:19:19.259Z,11.27
2023-01-13T13:22:17.897Z,18.73
2023-01-13T13:25:04.272Z,16.52
2023-01-13T13:27:47.449Z,14.00
2023-01-13T13:30:18.353Z,17.65
2023-01-13T13:33:06.007Z,9.82
2023-01-13T13:36:07.224Z,15.20
2023-01-13T13:39:10.591Z,9.73
2023-01-13T13:42:01.714Z,16.33
2023-01-13T13:44:51.648Z,15.60
2023-01-13T13:47:18.164Z,13.10
2023-01-13T13:49:50.045Z,16.27
2023-01-13T13:52:31.428Z,9.50
2023-01-13T13:55:08.690Z,15.60
2023-01-13T13:57:39.533Z,10.40
2023-01-13T14:00:19.680Z,12.85
2023-01-13T14:02:54.966Z,14.85
2023-01-13T14:05:25.506Z,13.80
2023-01-13T14:08:14.712Z,12.65
2023-01-13T14:10:43.150Z,11.95
2023-01-13T14:13:18.923Z,19.98
2023-01-13T14:15:46.322Z,24.02
2023-01-13T14:18:14.931Z,12.52
2023-01-13T14:20:42.200Z,18.70
2023-01-13T14:23:16.768Z,12.93
2023-01-13T14:25:48.267Z,13.95
2023-01-13T14:28:25.220Z,10.02
2023-01-13T14:30:52.147Z,14.18
2023-01-13T14:33:23.554Z,19.25
2023-01-13T14:36:13.932Z,20.20
2023-01-13T14:38:41.510Z,21.65
2023-01-13T14:41:18.128Z,13.98
2023-01-13T14:43:45.712Z,13.70
2023-01-13T14:46:13.099Z,18.60
2023-01-13T14:48:40.930Z,13.35
2023-01-13T14:51:10.753Z,13.52
2023-01-13T14:53:46.418Z,14.20
2023-01-13T14:56:36.132Z,11.50
2023-01-13T14:59:42.264Z,12.23
2023-01-13T15:02:34.805Z,19.60
2023-01-13T15:08:09.814Z,15.30
2023-01-13T15:10:44.816Z,13.85
2023-01-13T15:13:24.972Z,17.75
2023-01-13T15:15:55.499Z,13.63
2023-01-13T15:18:21.893Z,13.25
2023-01-13T15:20:50.715Z,16.23
2023-01-13T15:23:18.358Z,16.08
2023-01-13T15:25:45.575Z,14.45
2023-01-13T15:28:32.221Z,12.68
2023-01-13T15:31:01.556Z,18.45
2023-01-13T15:33:27.982Z,20.92
2023-01-13T15:35:54.685Z,17.98
2023-01-13T15:38:22.907Z,20.23
2023-01-13T15:40:50.840Z,14.02
2023-01-13T15:43:38.343Z,18.55
2023-01-13T15:46:41.936Z,13.77
2023-01-13T15:49:20.683Z,15.75
2023-01-13T15:51:48.725Z,20.90
2023-01-13T15:54:15.833Z,14.32
2023-01-13T15:56:42.317Z,18.48
2023-01-13T15:59:21.242Z,22.50
2023-01-13T16:01:47.861Z,23.15
2023-01-13T16:04:14.345Z,27.63
2023-01-13T16:06:41.101Z,24.10
2023-01-13T16:09:07.649Z,20.65
2023-01-13T16:11:34.152Z,17.75
2023-01-13T16:14:00.654Z,18.00
2023-01-13T16:16:28.514Z,18.58
2023-01-13T16:18:55.100Z,20.00
2023-01-13T16:21:24.369Z,16.10
2023-01-13T16:23:51.560Z,14.05
2023-01-13T16:26:26.356Z,14.82
2023-01-13T16:28:54.323Z,19.83
2023-01-13T16:31:29.065Z,18.17
2023-01-13T16:33:55.572Z,19.80
2023-01-13T16:36:22.260Z,17.67
2023-01-13T16:38:50.209Z,12.95
2023-01-13T16:41:16.922Z,19.65
2023-01-13T16:43:43.436Z,15.57
2023-01-13T16:46:21.151Z,16.15
2023-01-13T16:48:48.258Z,15.45
2023-01-13T16:51:14.714Z,16.83
2023-01-13T16:53:41.212Z,21.98
2023-01-13T16:56:20.770Z,22.27
2023-01-13T16:58:47.367Z,14.73
2023-01-13T17:01:26.088Z,11.90
2023-01-13T17:03:53.172Z,13.35
2023-01-13T17:06:22.934Z,15.43
2023-01-13T17:08:49.312Z,9.93
2023-01-13T17:11:15.881Z,12.93
2023-01-13T17:13:42.349Z,16.23
2023-01-13T17:16:16.076Z,19.67
2023-01-13T17:18:42.600Z,17.25
2023-01-13T17:21:08.971Z,14.27
2023-01-13T17:23:35.441Z,14.35
2023-01-13T17:26:02.027Z,16.75
2023-01-13T17:28:28.430Z,18.60
2023-01-13T17:30:54.801Z,16.50
2023-01-13T17:33:21.262Z,20.60
2023-01-13T17:35:47.648Z,17.17
2023-01-13T17:38:14.007Z,10.93
2023-01-13T17:40:40.384Z,16.67
2023-01-13T17:43:06.791Z,17.60
2023-01-13T17:45:33.279Z,17.13
2023-01-13T17:47:59.963Z,16.48
2023-01-13T17:50:30.962Z,17.02
2023-01-13T17:52:57.362Z,15.48
2023-01-13T17:55:23.740Z,13.90
2023-01-13T17:57:50.120Z,16.50
2023-01-13T18:00:16.772Z,21.45
2023-01-13T18:02:43.193Z,15.82
2023-01-13T18:05:09.786Z,16.67
2023-01-13T18:07:36.217Z,17.15
2023-01-13T18:10:02.584Z,13.60
2023-01-13T18:12:28.954Z,15.80
2023-01-13T18:14:55.347Z,17.23
2023-01-13T18:17:21.724Z,22.95
2023-01-13T18:20:06.712Z,20.00
2023-01-13T18:22:51.558Z,13.82
2023-01-13T18:25:36.504Z,16.65
2023-01-13T18:28:03.615Z,22.42
2023-01-13T18:30:29.996Z,12.50
2023-01-13T18:32:56.980Z,16.15
2023-01-13T18:35:23.415Z,18.08
2023-01-13T18:37:49.776Z,23.98
2023-01-13T18:40:16.431Z,15.75
2023-01-13T18:42:51.778Z,19.90
2023-01-13T18:45:20.637Z,20.02
2023-01-13T18:47:47.032Z,19.48
2023-01-13T18:50:13.856Z,17.20
2023-01-13T18:52:41.209Z,27.05
2023-01-13T18:55:07.950Z,21.15
2023-01-13T18:57:38.842Z,22.30
2023-01-13T19:00:06.054Z,16.65
2023-01-13T19:02:32.444Z,26.10
2023-01-13T19:04:58.817Z,21.17
2023-01-13T19:07:28.480Z,19.35
2023-01-13T19:09:56.038Z,24.67
2023-01-13T19:12:26.200Z,14.98
2023-01-13T19:14:54.279Z,19.10
2023-01-13T19:17:21.803Z,18.52
2023-01-13T19:19:50.833Z,19.83
2023-01-13T19:22:24.025Z,19.70
2023-01-13T19:24:50.707Z,14.88
2023-01-13T19:27:18.472Z,17.25
2023-01-13T19:29:52.130Z,20.92
2023-01-13T19:32:20.677Z,24.40
2023-01-13T19:34:49.310Z,18.67
2023-01-13T19:37:15.721Z,14.35
2023-01-13T19:39:42.298Z,16.42
2023-01-13T19:42:31.791Z,19.20
2023-01-13T19:45:16.726Z,18.88
2023-01-13T19:47:45.280Z,18.23
2023-01-13T19:50:12.208Z,20.90
2023-01-13T19:52:38.638Z,17.95
2023-01-13T19:55:05.356Z,14.27
2023-01-13T19:57:31.832Z,16.05
2023-01-13T19:59:58.264Z,18.90
2023-01-13T20:02:28.136Z,16.23
2023-01-13T20:04:56.058Z,15.75
2023-01-13T20:07:24.295Z,24.13
2023-01-13T20:09:52.189Z,21.88
2023-01-13T20:12:19.987Z,23.17
2023-01-13T20:14:49.929Z,13.15
2023-01-13T20:17:17.805Z,23.63
2023-01-13T20:19:44.449Z,19.85
2023-01-13T20:22:11.840Z,21.73
2023-01-13T20:24:38.477Z,18.27
2023-01-13T20:27:05.830Z,22.83
2023-01-13T20:29:32.872Z,19.90
2023-01-13T20:31:59.370Z,17.55
2023-01-13T20:34:25.887Z,16.00
2023-01-13T20:36:52.360Z,18.20
2023-01-13T20:39:22.137Z,19.58
2023-01-13T20:42:07.164Z,29.20
2023-01-13T20:44:33.917Z,15.13
2023-01-13T20:47:00.337Z,19.10
2023-01-13T20:49:27.800Z,18.13
2023-01-13T20:51:54.992Z,16.55
2023-01-13T20:54:22.141Z,14.18
2023-01-13T20:56:49.095Z,17.55
2023-01-13T20:59:15.526Z,17.38
2023-01-13T21:01:42.391Z,13.98
2023-01-13T21:04:09.228Z,15.15
2023-01-13T21:06:36.068Z,18.65
2023-01-13T21:09:02.889Z,11.55
2023-01-13T21:11:47.984Z,18.17
2023-01-13T21:14:39.047Z,13.70
2023-01-13T21:17:05.939Z,15.55
2023-01-13T21:19:32.436Z,18.90
2023-01-13T21:21:58.840Z,18.30
2023-01-13T21:24:25.681Z,20.55
2023-01-13T21:26:55.740Z,12.98
2023-01-13T21:29:22.945Z,21.85
2023-01-13T21:31:49.405Z,22.58
2023-01-13T21:34:15.847Z,18.77
2023-01-13T21:36:42.293Z,13.85
2023-01-13T21:39:09.227Z,8.98
2023-01-13T21:41:54.186Z,15.70
2023-01-13T21:44:50.328Z,15.07
2023-01-13T21:47:36.619Z,16.23
2023-01-13T21:50:03.971Z,11.73
2023-01-13T21:52:30.393Z,12.43
2023-01-13T21:55:15.121Z,13.73
2023-01-13T21:57:44.719Z,15.75
2023-01-13T22:00:11.783Z,20.00
2023-01-13T22:02:38.321Z,25.60
2023-01-13T22:05:06.507Z,17.90
2023-01-13T22:07:34.419Z,23.63
2023-01-13T22:10:01.167Z,19.98
2023-01-13T22:12:27.870Z,20.05
2023-01-13T22:14:54.873Z,18.98
2023-01-13T22:17:23.292Z,18.15
2023-01-13T22:19:52.728Z,17.17
2023-01-13T22:22:20.832Z,16.50
2023-01-13T22:24:49.138Z,16.00
2023-01-13T22:27:24.517Z,20.73
2023-01-13T22:29:52.381Z,12.98
2023-01-13T22:32:20.647Z,17.20
2023-01-13T22:34:47.560Z,20.10
2023-01-13T22:37:14.099Z,15.43
2023-01-13T22:39:40.629Z,19.83
2023-01-13T22:42:07.482Z,25.60
2023-01-13T22:44:34.006Z,20.50
2023-01-13T22:47:00.459Z,24.40
2023-01-13T22:49:26.866Z,28.58
2023-01-13T22:51:53.331Z,18.90
2023-01-13T22:54:19.699Z,21.48
2023-01-13T22:56:46.129Z,16.75
2023-01-13T22:59:13.559Z,18.75
2023-01-13T23:01:41.988Z,23.88
2023-01-13T23:04:11.915Z,23.88
2023-01-13T23:06:38.616Z,21.25
2023-01-13T23:09:05.151Z,19.48
2023-01-13T23:11:31.676Z,23.95
2023-01-13T23:13:59.825Z,25.92
2023-01-13T23:16:26.906Z,25.58
2023-01-13T23:18:53.377Z,27.00
2023-01-13T23:21:23.176Z,22.48
2023-01-13T23:23:50.268Z,22.45
2023-01-13T23:26:16.706Z,30.00
2023-01-13T23:28:43.127Z,24.77
2023-01-13T23:31:14.737Z,22.08
2023-01-13T23:33:41.397Z,17.65
2023-01-13T23:36:09.174Z,25.92
2023-01-13T23:38:35.549Z,29.00
2023-01-13T23:41:05.549Z,34.20
2023-01-13T23:43:31.930Z,20.02
2023-01-13T23:46:03.421Z,22.20
2023-01-13T23:48:29.965Z,24.50
2023-01-13T23:50:58.062Z,18.13
2023-01-13T23:53:24.661Z,27.05
2023-01-13T23:55:56.710Z,28.83
2023-01-13T23:58:23.140Z,24.13
